Main page
METAR-TAF:

METAR-TAF

Airports :

Ulan Bator, Mongolia

Chinggis Khaan International Airport

latitude: 47-55N, longitude: 106-52E, elevation: 1306 m

Current weather observation

The report was made 24 minutes ago, at 13:30 UTC
Wind 2 kt from variable directions
Temperature -2°C
Humidity 63%
Pressure 1015 hPa
Visibility 10 km or more
no clouds below 1500 m and no cumulonimbus

METAR: ZMUB 281330Z VRB01MPS CAVOK M02/M08 Q1015 NOSIG RMK QFE654.1 58

Time: 22:54 (13:54 UTC)

Forecast

The report was made 3 hours and 17 minutes ago, at 10:37 UTC
Forecast valid from 28 at 12 UTC to 29 at 18 UTC
Wind 4 kt from variable directions
Visibility 10 km or more
Few clouds at a height of 3300 ft
Scattered clouds at a height of 10000 ft
Becoming
from 29 at 02 UTC to 29 at 04 UTC
Wind 10 kt from the North/Northwest
Becoming
from 29 at 10 UTC to 29 at 12 UTC
Wind 4 kt from variable directions

TAF: ZMUB 281037Z 2812/2918 VRB02MPS 9999 FEW033 SCT100 TNM08/2822Z TX05/2907Z BECMG 2902/2904 34005MPS BECMG 2910/2912 VRB02MPS

Weather observations and forecasts of more than 4000 airports (METAR and TAF reports).

The available stations are represented by yellow and red dots on the map.

Hover mouse over dot to see the name of the station.

Then click to see weather observations and forecasts.

To change the map : click on the green buttons with a black cross to zoom in, on the green button with a dash to zoom out, or on the green arrows for adjacent maps.


METAR-TAF: